Time;durP1;ratioP1;P1;durP2;ratioP2;P2;SDS_P1;SDS_P2;PMS_P1;PMS_P2;Temp;Humidity;BMP_temperature;BMP_pressure;BME280_temperature;BME280_humidity;BME280_pressure;Samples;Min_cycle;Max_cycle;Signal;HPM_P1;HPM_P2
2024/01/15 00:00:35;;;;;;;0.00;0.00;;;;;;;2.96;100.00;100564.38;5076230;27;101013;-27
2024/01/15 00:03:00;;;;;;;0.00;0.00;;;;;;;2.96;100.00;100550.13;5094812;27;96615;-27
2024/01/15 00:05:26;;;;;;;0.00;0.00;;;;;;;2.95;100.00;100557.25;5094398;27;96837;-27
2024/01/15 00:07:51;;;;;;;0.00;0.00;;;;;;;3.02;100.00;100565.94;5093785;27;97895;-27
2024/01/15 00:10:16;;;;;;;0.00;0.00;;;;;;;3.04;100.00;100571.25;5094518;27;97076;-27
2024/01/15 00:12:42;;;;;;;0.45;0.17;;;;;;;2.96;100.00;100568.84;5094376;27;102441;-27
2024/01/15 00:15:07;;;;;;;0.00;0.00;;;;;;;2.94;100.00;100568.91;5094475;27;96827;-27
2024/01/15 00:17:33;;;;;;;0.47;0.28;;;;;;;2.90;100.00;100555.69;5094166;27;98578;-28
2024/01/15 00:19:58;;;;;;;0.00;0.00;;;;;;;2.89;100.00;100545.91;5094082;27;97818;-27
2024/01/15 00:22:25;;;;;;;0.00;0.00;;;;;;;2.93;100.00;100550.22;5094248;27;97109;-27
2024/01/15 00:24:50;;;;;;;2.90;0.52;;;;;;;2.95;100.00;100551.91;5094507;27;97283;-27
2024/01/15 00:27:16;;;;;;;0.00;0.00;;;;;;;2.98;100.00;100545.59;5094077;27;97407;-27
2024/01/15 00:29:42;;;;;;;0.90;0.10;;;;;;;2.97;100.00;100544.69;5094329;27;97533;-27
2024/01/15 00:32:07;;;;;;;0.00;0.00;;;;;;;2.96;100.00;100544.78;5074907;27;97493;-28
2024/01/15 00:34:32;;;;;;;0.00;0.00;;;;;;;2.95;100.00;100532.31;5094085;27;96822;-27
2024/01/15 00:36:57;;;;;;;0.00;0.00;;;;;;;2.98;100.00;100541.13;5093902;27;100116;-27
2024/01/15 00:39:23;;;;;;;0.00;0.00;;;;;;;2.88;100.00;100528.97;5093912;27;97307;-27
2024/01/15 00:41:48;;;;;;;0.00;0.00;;;;;;;2.87;100.00;100529.91;5094108;27;96498;-27
2024/01/15 00:44:14;;;;;;;0.00;0.00;;;;;;;2.81;100.00;100530.09;5093668;27;97453;-27
2024/01/15 00:46:46;;;;;;;0.10;0.10;;;;;;;2.79;100.00;100528.41;5093783;27;100073;-27
2024/01/15 00:49:13;;;;;;;0.77;0.57;;;;;;;2.70;100.00;100522.47;5075214;27;100920;-27
2024/01/15 00:51:38;;;;;;;0.10;0.10;;;;;;;2.69;100.00;100523.41;5074741;27;98044;-27
2024/01/15 00:54:04;;;;;;;0.32;0.25;;;;;;;2.59;100.00;100521.09;5093900;27;96811;-27
2024/01/15 00:56:29;;;;;;;0.00;0.00;;;;;;;2.57;100.00;100514.91;5092941;27;99417;-27
2024/01/15 00:58:54;;;;;;;0.20;0.13;;;;;;;2.55;100.00;100507.84;5093299;27;106698;-27
2024/01/15 01:01:20;;;;;;;0.00;0.00;;;;;;;2.66;100.00;100514.59;5093516;27;100989;-27
2024/01/15 01:03:45;;;;;;;0.00;0.00;;;;;;;2.64;100.00;100517.31;5093015;27;96817;-27
2024/01/15 01:06:10;;;;;;;0.00;0.00;;;;;;;2.61;100.00;100506.75;5093363;27;99346;-27
2024/01/15 01:08:36;;;;;;;1.55;0.47;;;;;;;2.64;100.00;100511.09;5093551;27;97352;-28
2024/01/15 01:11:01;;;;;;;0.00;0.00;;;;;;;2.68;100.00;100510.09;5093576;27;96509;-26
2024/01/15 01:13:26;;;;;;;0.00;0.00;;;;;;;2.65;100.00;100504.84;5093763;27;96831;-28
2024/01/15 01:15:52;;;;;;;0.00;0.00;;;;;;;2.64;100.00;100503.09;5093413;27;101209;-27
2024/01/15 01:18:17;;;;;;;1.75;0.85;;;;;;;2.61;100.00;100505.88;5093196;27;98502;-27
2024/01/15 01:20:42;;;;;;;0.22;0.08;;;;;;;2.66;100.00;100502.09;5092798;27;99029;-27
2024/01/15 01:23:07;;;;;;;0.00;0.00;;;;;;;2.73;100.00;100508.13;5093228;27;101009;-27
2024/01/15 01:25:33;;;;;;;0.28;0.22;;;;;;;2.65;100.00;100507.53;5093101;27;99324;-26
2024/01/15 01:27:58;;;;;;;0.00;0.00;;;;;;;2.61;100.00;100505.88;5094732;27;97280;-27
2024/01/15 01:30:23;;;;;;;0.00;0.00;;;;;;;2.64;100.00;100506.63;5096854;27;96629;-27
2024/01/15 01:32:49;;;;;;;0.00;0.00;;;;;;;2.60;100.00;100497.00;5097120;27;96866;-28
2024/01/15 01:35:14;;;;;;;0.28;0.20;;;;;;;2.64;100.00;100500.41;5096678;27;97980;-26
2024/01/15 01:37:39;;;;;;;0.00;0.00;;;;;;;2.63;100.00;100499.53;5097195;27;97342;-27
2024/01/15 01:40:06;;;;;;;0.63;0.50;;;;;;;2.66;100.00;100502.09;5096829;27;96481;-26
2024/01/15 01:42:31;;;;;;;0.03;0.03;;;;;;;2.68;100.00;100499.38;5096833;27;96874;-28
2024/01/15 01:44:56;;;;;;;1.65;0.20;;;;;;;2.70;100.00;100500.22;5096282;27;97922;-26
2024/01/15 01:47:21;;;;;;;0.00;0.00;;;;;;;2.73;100.00;100508.13;5096393;27;99127;-27
2024/01/15 01:49:47;;;;;;;0.00;0.00;;;;;;;2.72;100.00;100501.91;5096427;27;96808;-27
2024/01/15 01:52:13;;;;;;;0.00;0.00;;;;;;;2.69;100.00;100496.66;5096236;27;96890;-27
2024/01/15 01:54:41;;;;;;;0.00;0.00;;;;;;;2.75;100.00;100500.91;5077786;27;101302;-27
2024/01/15 01:57:07;;;;;;;0.00;0.00;;;;;;;2.75;100.00;100499.13;5077680;27;100845;-27
2024/01/15 01:59:34;;;;;;;0.00;0.00;;;;;;;2.76;100.00;100499.97;5077946;27;96652;-27
2024/01/15 02:02:01;;;;;;;0.00;0.00;;;;;;;2.74;100.00;100494.72;5078314;27;96862;-27
2024/01/15 02:04:26;;;;;;;0.00;0.00;;;;;;;2.75;100.00;100499.13;5077423;27;100972;-27
2024/01/15 02:06:52;;;;;;;0.38;0.15;;;;;;;2.71;100.00;100502.81;5096419;27;97292;-27
2024/01/15 02:09:18;;;;;;;0.00;0.00;;;;;;;2.71;100.00;100502.81;5096042;27;96476;-27
2024/01/15 02:11:46;;;;;;;0.00;0.00;;;;;;;2.69;100.00;100498.44;5077694;27;96857;-28
2024/01/15 02:14:11;;;;;;;0.00;0.00;;;;;;;2.64;100.00;100492.38;5077609;27;101475;-27
2024/01/15 02:16:37;;;;;;;0.00;0.00;;;;;;;2.66;100.00;100495.88;5096173;27;97723;-27
2024/01/15 02:19:02;;;;;;;0.93;0.15;;;;;;;2.63;100.00;100485.31;5096356;27;96597;-27
2024/01/15 02:21:28;;;;;;;0.00;0.00;;;;;;;2.64;100.00;100492.38;5096307;27;96776;-27
2024/01/15 02:23:54;;;;;;;0.00;0.00;;;;;;;2.61;100.00;100492.50;5095782;27;99262;-27
2024/01/15 02:26:21;;;;;;;0.00;0.00;;;;;;;2.60;100.00;100494.31;5077737;27;101352;-27
2024/01/15 02:28:47;;;;;;;0.10;0.10;;;;;;;2.54;100.00;100471.31;5077477;27;96642;-26
2024/01/15 02:31:12;;;;;;;3.00;0.30;;;;;;;2.55;100.00;100472.19;5077204;27;96832;-27
2024/01/15 02:33:37;;;;;;;1.33;0.32;;;;;;;2.58;100.00;100474.78;5095496;27;97858;-26
2024/01/15 02:36:03;;;;;;;0.20;0.10;;;;;;;2.61;100.00;100476.47;5095645;27;99117;-27
2024/01/15 02:38:28;;;;;;;0.00;0.00;;;;;;;2.60;100.00;100478.28;5095245;27;98768;-27
2024/01/15 02:40:53;;;;;;;0.00;0.00;;;;;;;2.60;100.00;100480.03;5095110;27;96818;-26
2024/01/15 02:43:19;;;;;;;0.00;0.00;;;;;;;2.61;100.00;100479.13;5095548;27;99140;-29
2024/01/15 02:45:45;;;;;;;0.32;0.10;;;;;;;2.58;100.00;100468.56;5095431;27;99143;-27
2024/01/15 02:48:11;;;;;;;0.00;0.00;;;;;;;2.64;100.00;100476.34;5077260;27;96621;-27
2024/01/15 02:50:36;;;;;;;0.10;0.10;;;;;;;2.59;100.00;100478.31;5095945;27;96832;-28
2024/01/15 02:53:02;;;;;;;0.00;0.00;;;;;;;2.65;100.00;100480.78;5095236;27;99391;-26
2024/01/15 02:55:29;;;;;;;0.00;0.00;;;;;;;2.54;100.00;100470.44;5095499;27;97740;-27
2024/01/15 02:57:54;;;;;;;0.00;0.00;;;;;;;2.48;100.00;100476.91;5094967;27;96664;-28
2024/01/15 03:00:20;;;;;;;0.00;0.00;;;;;;;2.46;100.00;100476.06;5095345;27;96855;-27
2024/01/15 03:02:45;;;;;;;0.00;0.00;;;;;;;2.48;100.00;100468.88;5094994;27;99277;-27
2024/01/15 03:05:11;;;;;;;0.00;0.00;;;;;;;2.47;100.00;100475.13;5094696;27;99109;-28
2024/01/15 03:07:36;;;;;;;0.00;0.00;;;;;;;2.46;100.00;100484.09;5095641;27;96591;-27
2024/01/15 03:10:02;;;;;;;0.70;0.35;;;;;;;2.52;100.00;100485.66;5095917;27;96762;-27
2024/01/15 03:12:28;;;;;;;0.00;0.00;;;;;;;2.48;100.00;100503.63;5076551;27;101096;-27
2024/01/15 03:14:53;;;;;;;0.00;0.00;;;;;;;2.45;100.00;100498.34;5095492;27;98608;-34
2024/01/15 03:17:18;;;;;;;0.00;0.00;;;;;;;2.39;100.00;100490.56;5095153;27;96647;-27
2024/01/15 03:19:44;;;;;;;0.00;0.00;;;;;;;2.42;100.00;100489.59;5095819;27;96906;-27
2024/01/15 03:22:09;;;;;;;0.00;0.00;;;;;;;2.41;100.00;100495.84;5094738;27;97926;-27
2024/01/15 03:24:35;;;;;;;0.00;0.00;;;;;;;2.36;100.00;100496.03;5095217;27;98340;-27
2024/01/15 03:27:01;;;;;;;0.00;0.00;;;;;;;2.36;100.00;100485.34;5095196;27;96626;-27
2024/01/15 03:29:27;;;;;;;0.00;0.00;;;;;;;2.35;100.00;100478.22;5095408;27;96829;-27
2024/01/15 03:31:52;;;;;;;0.00;0.00;;;;;;;2.35;100.00;100470.22;5094762;27;99205;-27
2024/01/15 03:34:18;;;;;;;0.00;0.00;;;;;;;2.35;100.00;100467.53;5095064;27;97235;-27
2024/01/15 03:36:43;;;;;;;0.00;0.00;;;;;;;2.34;100.00;100452.44;5095128;27;96768;-27
2024/01/15 03:39:08;;;;;;;0.00;0.00;;;;;;;2.31;100.00;100441.84;5095541;27;96813;-28
2024/01/15 03:41:34;;;;;;;0.10;0.10;;;;;;;2.29;100.00;100451.72;5094964;27;97429;-27
2024/01/15 03:43:59;;;;;;;0.00;0.00;;;;;;;2.30;100.00;100445.44;5094890;27;97956;-27
2024/01/15 03:46:25;;;;;;;0.00;0.00;;;;;;;2.33;100.00;100456.03;5094222;27;96817;-27
2024/01/15 03:48:50;;;;;;;0.00;0.00;;;;;;;2.25;100.00;100452.75;5095227;27;96813;-27
2024/01/15 03:51:17;;;;;;;0.00;0.00;;;;;;;2.26;100.00;100462.50;5094119;27;97564;-27
2024/01/15 03:53:43;;;;;;;0.05;0.00;;;;;;;2.29;100.00;100451.72;5075904;27;101290;-27
2024/01/15 03:56:08;;;;;;;0.00;0.00;;;;;;;2.33;100.00;100451.53;5094688;27;97984;-27
2024/01/15 03:58:33;;;;;;;0.00;0.00;;;;;;;2.30;100.00;100450.78;5094744;27;96772;-27
2024/01/15 04:00:59;;;;;;;0.00;0.00;;;;;;;2.37;100.00;100452.31;5094095;27;101056;-26
2024/01/15 04:03:24;;;;;;;0.00;0.00;;;;;;;2.31;100.00;100445.41;5094869;27;97429;-27
2024/01/15 04:05:49;;;;;;;0.00;0.00;;;;;;;2.38;100.00;100440.69;5093969;27;96777;-27
2024/01/15 04:08:15;;;;;;;0.00;0.00;;;;;;;2.40;100.00;100444.19;5094644;27;96853;-26
2024/01/15 04:10:40;;;;;;;0.00;0.00;;;;;;;2.33;100.00;100442.66;5093891;27;97492;-27
2024/01/15 04:13:05;;;;;;;0.10;0.03;;;;;;;2.35;100.00;100440.81;5094214;27;99153;-27
2024/01/15 04:15:31;;;;;;;0.00;0.00;;;;;;;2.45;100.00;100436.00;5094471;27;96760;-27
2024/01/15 04:17:56;;;;;;;0.00;0.00;;;;;;;2.42;100.00;100428.97;5094208;27;96826;-27
2024/01/15 04:20:21;;;;;;;0.10;0.10;;;;;;;2.41;100.00;100431.69;5094581;27;97818;-27
2024/01/15 04:22:46;;;;;;;0.00;0.00;;;;;;;2.42;100.00;100434.31;5093958;27;99167;-27
2024/01/15 04:25:12;;;;;;;0.00;0.00;;;;;;;2.43;100.00;100422.72;5094311;27;96597;-27
2024/01/15 04:27:37;;;;;;;0.00;0.00;;;;;;;2.47;100.00;100423.47;5094332;27;97073;-27
2024/01/15 04:30:03;;;;;;;0.25;0.10;;;;;;;2.45;100.00;100425.31;5092463;27;97285;-28
2024/01/15 04:32:28;;;;;;;0.00;0.00;;;;;;;2.39;100.00;100425.56;5092092;27;97321;-27
2024/01/15 04:34:55;;;;;;;0.00;0.00;;;;;;;2.45;100.00;100439.56;5075030;27;96623;-27
2024/01/15 04:37:20;;;;;;;0.00;0.00;;;;;;;2.41;100.00;100435.25;5093891;27;97499;-27
2024/01/15 04:39:45;;;;;;;0.10;0.05;;;;;;;2.38;100.00;100432.69;5094009;27;97943;-27
2024/01/15 04:42:11;;;;;;;0.10;0.10;;;;;;;2.36;100.00;100423.88;5093511;27;99296;-27
2024/01/15 04:44:37;;;;;;;0.00;0.00;;;;;;;2.40;100.00;100433.50;5093604;27;96799;-28
2024/01/15 04:47:02;;;;;;;0.30;0.10;;;;;;;2.39;100.00;100426.44;5093993;27;96597;-27
2024/01/15 04:49:29;;;;;;;0.00;0.00;;;;;;;2.44;100.00;100435.16;5093637;27;97460;-27
2024/01/15 04:51:54;;;;;;;0.00;0.00;;;;;;;2.43;100.00;100430.75;5092351;27;99069;-27
2024/01/15 04:54:20;;;;;;;0.00;0.00;;;;;;;2.36;100.00;100431.88;5091495;27;97149;-31
2024/01/15 04:56:45;;;;;;;0.00;0.00;;;;;;;2.33;100.00;100454.22;5091208;27;96785;-29
2024/01/15 04:59:11;;;;;;;0.00;0.00;;;;;;;2.24;100.00;100443.88;5090503;27;97642;-27
2024/01/15 05:01:36;;;;;;;0.00;0.00;;;;;;;2.17;100.00;100442.31;5091059;27;97183;-33
2024/01/15 05:04:02;;;;;;;0.00;0.00;;;;;;;2.18;100.00;100446.72;5090258;27;97165;-30
2024/01/15 05:06:27;;;;;;;0.08;0.08;;;;;;;2.05;100.00;100424.00;5072939;27;96896;-27
2024/01/15 05:08:53;;;;;;;0.00;0.00;;;;;;;2.01;100.00;100409.91;5093511;27;97521;-28
2024/01/15 05:11:18;;;;;;;0.10;0.00;;;;;;;2.08;100.00;100413.25;5093413;27;97894;-27
2024/01/15 05:13:44;;;;;;;0.00;0.00;;;;;;;2.03;100.00;100400.03;5093519;27;96582;-27
2024/01/15 05:16:09;;;;;;;0.00;0.00;;;;;;;2.07;100.00;100404.38;5093701;27;96830;-27
2024/01/15 05:18:34;;;;;;;0.00;0.00;;;;;;;2.12;100.00;100398.84;5093307;27;97689;-27
2024/01/15 05:20:59;;;;;;;0.00;0.00;;;;;;;2.12;100.00;100391.72;5093186;27;101021;-27
2024/01/15 05:23:25;;;;;;;0.00;0.00;;;;;;;2.20;100.00;100395.94;5092945;27;96524;-27
2024/01/15 05:25:50;;;;;;;0.15;0.05;;;;;;;2.18;100.00;100398.63;5093458;27;96863;-27
2024/01/15 05:28:16;;;;;;;0.00;0.00;;;;;;;2.12;100.00;100391.72;5093394;27;97959;-27
2024/01/15 05:30:41;;;;;;;0.00;0.00;;;;;;;2.11;100.00;100389.94;5093370;27;97866;-27
2024/01/15 05:33:07;;;;;;;0.28;0.25;;;;;;;2.09;100.00;100396.28;5093167;27;99976;-27
2024/01/15 05:35:33;;;;;;;0.00;0.00;;;;;;;2.05;100.00;100395.53;5074662;27;96883;-27
2024/01/15 05:37:59;;;;;;;0.20;0.13;;;;;;;2.06;100.00;100399.06;5074431;27;100747;-28
2024/01/15 05:40:24;;;;;;;0.00;0.00;;;;;;;2.08;100.00;100405.22;5093375;27;97792;-27
2024/01/15 05:42:49;;;;;;;0.00;0.00;;;;;;;2.03;100.00;100396.50;5093053;27;96472;-27
2024/01/15 05:45:15;;;;;;;0.03;0.00;;;;;;;2.00;100.00;100404.59;5093314;27;96896;-27
2024/01/15 05:47:40;;;;;;;0.00;0.00;;;;;;;2.02;100.00;100406.28;5092548;27;97890;-27
2024/01/15 05:50:06;;;;;;;0.00;0.00;;;;;;;1.99;100.00;100397.53;5092716;27;99087;-26
2024/01/15 05:52:32;;;;;;;0.00;0.00;;;;;;;2.07;100.00;100398.13;5092720;27;96509;-26
2024/01/15 05:54:57;;;;;;;0.00;0.00;;;;;;;2.05;100.00;100387.50;5093196;27;96831;-27
2024/01/15 05:57:22;;;;;;;0.10;0.10;;;;;;;2.10;100.00;100388.22;5092973;27;98017;-26
2024/01/15 05:59:48;;;;;;;0.00;0.00;;;;;;;2.16;100.00;100396.94;5073707;27;97943;-27
2024/01/15 06:02:13;;;;;;;0.00;0.00;;;;;;;2.08;100.00;100379.38;5093140;27;96797;-27
2024/01/15 06:04:38;;;;;;;0.00;0.00;;;;;;;2.12;100.00;100381.03;5092559;27;96898;-27
2024/01/15 06:07:03;;;;;;;0.00;0.00;;;;;;;2.08;100.00;100379.38;5092849;27;97489;-27
2024/01/15 06:09:29;;;;;;;0.00;0.00;;;;;;;2.16;100.00;100386.25;5074089;27;99591;-27
2024/01/15 06:11:55;;;;;;;0.00;0.00;;;;;;;2.09;100.00;100370.44;5092363;27;96658;-27
2024/01/15 06:14:20;;;;;;;0.00;0.00;;;;;;;2.15;100.00;100389.88;5076143;27;97017;-26
2024/01/15 06:16:46;;;;;;;0.00;0.00;;;;;;;2.05;100.00;100373.25;5096286;27;97900;-27
2024/01/15 06:19:11;;;;;;;0.00;0.00;;;;;;;2.12;100.00;100385.47;5095773;27;99116;-27
2024/01/15 06:21:36;;;;;;;0.00;0.00;;;;;;;2.15;100.00;100390.75;5095121;27;97640;-27
2024/01/15 06:24:02;;;;;;;0.00;0.00;;;;;;;2.14;100.00;100415.69;5095123;27;102614;-30
2024/01/15 06:26:27;;;;;;;0.00;0.00;;;;;;;1.94;100.00;100391.47;5094991;27;99331;-27
2024/01/15 06:28:52;;;;;;;0.00;0.00;;;;;;;1.92;100.00;100410.19;5096105;27;99109;-27
2024/01/15 06:31:18;;;;;;;0.00;0.00;;;;;;;1.92;100.00;100412.88;5096247;27;96509;-27
2024/01/15 06:33:44;;;;;;;0.00;0.00;;;;;;;1.86;100.00;100426.41;5096328;27;96747;-28
2024/01/15 06:36:10;;;;;;;0.00;0.00;;;;;;;1.78;100.00;100428.47;5076735;27;100847;-27
2024/01/15 06:38:36;;;;;;;0.00;0.00;;;;;;;1.70;100.00;100418.91;5095745;27;99352;-28
2024/01/15 06:41:01;;;;;;;0.00;0.00;;;;;;;1.63;100.00;100390.66;5096137;27;96874;-27
2024/01/15 06:43:26;;;;;;;0.00;0.00;;;;;;;1.69;100.00;100401.16;5096144;27;96759;-27
2024/01/15 06:45:52;;;;;;;0.00;0.00;;;;;;;1.76;100.00;100398.28;5095816;27;98386;-26
2024/01/15 06:48:17;;;;;;;0.00;0.00;;;;;;;1.77;100.00;100392.91;5095811;27;97330;-27
2024/01/15 06:50:43;;;;;;;0.00;0.00;;;;;;;1.75;100.00;100396.53;5095411;27;97575;-27
2024/01/15 06:53:08;;;;;;;0.00;0.00;;;;;;;1.77;100.00;100387.56;5095797;27;96806;-27
2024/01/15 06:55:34;;;;;;;0.00;0.00;;;;;;;1.76;100.00;100379.59;5095732;27;97484;-27
2024/01/15 06:57:59;;;;;;;0.00;0.00;;;;;;;1.79;100.00;100390.16;5095394;27;101340;-28
2024/01/15 07:00:27;;;;;;;0.03;0.03;;;;;;;1.75;100.00;100375.19;5095382;27;96604;-27
2024/01/15 07:02:52;;;;;;;0.00;0.00;;;;;;;1.85;100.00;100381.94;5076948;27;97405;-27
2024/01/15 07:05:18;;;;;;;0.00;0.00;;;;;;;1.86;100.00;100378.34;5095128;27;97903;-27
2024/01/15 07:07:43;;;;;;;0.00;0.00;;;;;;;1.89;100.00;100376.47;5095201;27;98915;-27
2024/01/15 07:10:08;;;;;;;0.00;0.00;;;;;;;1.92;100.00;100386.16;5095528;27;96594;-27
2024/01/15 07:12:34;;;;;;;0.00;0.00;;;;;;;1.96;100.00;100413.66;5095389;27;96850;-27
2024/01/15 07:15:00;;;;;;;0.00;0.00;;;;;;;1.83;100.00;100405.16;5076677;27;100966;-27
2024/01/15 07:17:25;;;;;;;0.00;0.00;;;;;;;1.79;100.00;100385.72;5095431;27;99215;-27
2024/01/15 07:19:51;;;;;;;0.00;0.00;;;;;;;1.76;100.00;100390.25;5095646;27;96615;-27
2024/01/15 07:22:17;;;;;;;0.35;0.20;;;;;;;1.76;100.00;100375.09;5095443;27;96812;-29
2024/01/15 07:24:43;;;;;;;0.00;0.00;;;;;;;1.82;100.00;100382.06;5094295;27;99712;-27
2024/01/15 07:27:08;;;;;;;0.00;0.00;;;;;;;1.82;100.00;100377.59;5094520;27;97784;-26
2024/01/15 07:29:36;;;;;;;0.00;0.00;;;;;;;1.83;100.00;100373.97;5076509;27;96629;-27
2024/01/15 07:32:01;;;;;;;0.00;0.00;;;;;;;1.81;100.00;100365.19;5076469;27;96778;-27
2024/01/15 07:34:26;;;;;;;0.00;0.00;;;;;;;1.82;100.00;100366.91;5094997;27;98009;-27
2024/01/15 07:36:52;;;;;;;0.00;0.00;;;;;;;1.85;100.00;100361.47;5094700;27;99107;-28
2024/01/15 07:39:17;;;;;;;0.00;0.00;;;;;;;1.89;100.00;100375.59;5095052;27;96561;-26
2024/01/15 07:41:42;;;;;;;0.00;0.00;;;;;;;1.82;100.00;100356.22;5095005;27;96894;-27
2024/01/15 07:44:08;;;;;;;0.00;0.00;;;;;;;1.86;100.00;100362.31;5094764;27;97957;-27
2024/01/15 07:46:33;;;;;;;0.00;0.00;;;;;;;1.92;100.00;100370.13;5094846;27;97831;-27
2024/01/15 07:48:58;;;;;;;0.00;0.00;;;;;;;1.93;100.00;100385.22;5094756;27;96448;-27
2024/01/15 07:51:25;;;;;;;0.03;0.00;;;;;;;1.92;100.00;100380.81;5094395;27;96811;-27
2024/01/15 07:53:52;;;;;;;0.00;0.00;;;;;;;1.95;100.00;100386.06;5075899;27;100908;-27
2024/01/15 07:56:17;;;;;;;0.00;0.00;;;;;;;1.95;100.00;100383.38;5075656;27;101312;-27
2024/01/15 07:58:43;;;;;;;0.00;0.00;;;;;;;1.91;100.00;100387.09;5094554;27;96567;-27
2024/01/15 08:01:08;;;;;;;0.00;0.00;;;;;;;1.93;100.00;100387.91;5094987;27;96867;-27
2024/01/15 08:03:33;;;;;;;0.55;0.47;;;;;;;1.95;100.00;100393.19;5094922;27;97531;-27
2024/01/15 08:05:59;;;;;;;0.00;0.00;;;;;;;1.94;100.00;100389.66;5094684;27;97824;-27
2024/01/15 08:08:26;;;;;;;4.07;0.60;;;;;;;1.94;100.00;100383.44;5075989;27;96638;-27
2024/01/15 08:10:52;;;;;;;0.85;0.25;;;;;;;1.90;100.00;100380.88;5075756;27;96954;-27
2024/01/15 08:13:18;;;;;;;0.00;0.00;;;;;;;1.96;100.00;100382.47;5075077;27;100812;-27
2024/01/15 08:15:44;;;;;;;0.03;0.03;;;;;;;2.01;100.00;100385.84;5094388;27;97377;-27
2024/01/15 08:18:09;;;;;;;0.00;0.00;;;;;;;1.98;100.00;100377.97;5094447;27;96564;-27
2024/01/15 08:20:34;;;;;;;0.00;0.00;;;;;;;2.01;100.00;100374.31;5094603;27;96956;-27
2024/01/15 08:23:00;;;;;;;0.00;0.00;;;;;;;2.04;100.00;100375.06;5094047;27;99207;-27
2024/01/15 08:25:25;;;;;;;0.00;0.00;;;;;;;2.10;100.00;100377.53;5093952;27;99775;-27
2024/01/15 08:27:51;;;;;;;0.20;0.20;;;;;;;2.04;100.00;100372.38;5093898;27;96582;-27
2024/01/15 08:30:18;;;;;;;0.00;0.00;;;;;;;2.08;100.00;100374.03;5075893;27;96960;-27
2024/01/15 08:32:44;;;;;;;0.00;0.00;;;;;;;2.09;100.00;100381.13;5075308;27;101219;-27
2024/01/15 08:35:09;;;;;;;0.00;0.00;;;;;;;2.11;100.00;100400.63;5094447;27;97201;-27
2024/01/15 08:37:35;;;;;;;0.15;0.05;;;;;;;2.08;100.00;100392.75;5092528;27;96520;-27
2024/01/15 08:40:00;;;;;;;0.00;0.00;;;;;;;2.11;100.00;100384.59;5094008;27;96822;-27
2024/01/15 08:42:25;;;;;;;0.00;0.00;;;;;;;2.11;100.00;100386.41;5093712;27;99217;-27
2024/01/15 08:44:51;;;;;;;0.00;0.00;;;;;;;2.16;100.00;100403.16;5093629;27;99492;-27
2024/01/15 08:47:16;;;;;;;0.00;0.00;;;;;;;2.15;100.00;100404.09;5093952;27;96725;-27
2024/01/15 08:49:44;;;;;;;0.38;0.10;;;;;;;2.12;100.00;100396.16;5093916;27;96824;-27
2024/01/15 08:52:09;;;;;;;0.00;0.00;;;;;;;2.06;100.00;100386.56;5074725;27;100883;-27
2024/01/15 08:54:35;;;;;;;0.00;0.00;;;;;;;2.12;100.00;100396.16;5075276;27;100692;-28
2024/01/15 08:57:00;;;;;;;0.00;0.00;;;;;;;2.18;100.00;100393.28;5093532;27;100899;-27
2024/01/15 08:59:25;;;;;;;0.00;0.00;;;;;;;2.16;100.00;100395.13;5093754;27;96802;-28
2024/01/15 09:01:56;;;;;;;0.00;0.00;;;;;;;2.23;100.00;100412.72;5092891;27;100997;-27
2024/01/15 09:04:23;;;;;;;0.00;0.00;;;;;;;2.23;100.00;100403.81;5074699;27;100843;-27
2024/01/15 09:06:48;;;;;;;0.00;0.00;;;;;;;2.27;100.00;100416.16;5093616;27;96628;-27
2024/01/15 09:09:16;;;;;;;0.03;0.03;;;;;;;2.33;100.00;100427.50;5093400;27;96874;-27
2024/01/15 09:11:42;;;;;;;0.00;0.00;;;;;;;2.41;100.00;100419.22;5074731;27;100813;-27
2024/01/15 09:14:08;;;;;;;0.00;0.00;;;;;;;2.47;100.00;100415.47;5093578;27;97783;-27
2024/01/15 09:16:33;;;;;;;0.45;0.05;;;;;;;2.50;100.00;100410.88;5074829;27;96711;-27
2024/01/15 09:19:01;;;;;;;0.00;0.00;;;;;;;2.52;100.00;100413.50;5093890;27;96797;-27
2024/01/15 09:21:26;;;;;;;0.00;0.00;;;;;;;2.64;100.00;100410.38;5074605;27;100967;-27
2024/01/15 09:23:52;;;;;;;0.00;0.00;;;;;;;2.71;100.00;100433.28;5093105;27;101577;-27
2024/01/15 09:26:17;;;;;;;0.00;0.00;;;;;;;2.67;100.00;100439.69;5092943;27;97673;-27
2024/01/15 09:28:43;;;;;;;0.00;0.00;;;;;;;2.57;100.00;100429.38;5093224;27;96839;-27
2024/01/15 09:31:08;;;;;;;0.00;0.00;;;;;;;2.51;100.00;100428.66;5093389;27;97571;-27
2024/01/15 09:33:34;;;;;;;0.05;0.03;;;;;;;2.58;100.00;100434.66;5093017;27;99214;-26
2024/01/15 09:36:04;;;;;;;0.00;0.00;;;;;;;2.51;100.00;100420.66;5093763;27;96599;-27
2024/01/15 09:38:32;;;;;;;0.00;0.00;;;;;;;2.44;100.00;100416.44;5092483;27;96953;-27
2024/01/15 09:40:58;;;;;;;0.00;0.00;;;;;;;2.60;100.00;100423.91;5091202;27;99463;-28
2024/01/15 09:43:23;;;;;;;0.00;0.00;;;;;;;2.66;100.00;100418.34;5072937;27;101382;-27
2024/01/15 09:45:50;;;;;;;0.00;0.00;;;;;;;2.75;100.00;100426.03;5091929;27;96667;-27
2024/01/15 09:48:16;;;;;;;1.65;0.45;;;;;;;2.73;100.00;100418.06;5092598;27;96953;-27
2024/01/15 09:50:42;;;;;;;0.00;0.00;;;;;;;2.77;100.00;100410.81;5076809;27;101607;-27
2024/01/15 09:53:09;;;;;;;0.00;0.00;;;;;;;2.88;100.00;100405.94;5095391;27;99234;-28
2024/01/15 09:55:36;;;;;;;0.00;0.00;;;;;;;2.85;100.00;100406.06;5095908;27;96860;-30
2024/01/15 09:58:02;;;;;;;0.00;0.00;;;;;;;2.88;100.00;100408.59;5077827;27;96780;-27
2024/01/15 10:00:31;;;;;;;0.00;0.00;;;;;;;2.91;100.00;100421.88;5077692;27;100821;-27
2024/01/15 10:02:56;;;;;;;0.00;0.00;;;;;;;2.98;100.00;100423.41;5075041;27;100799;-28
2024/01/15 10:05:22;;;;;;;1.73;0.45;;;;;;;2.94;100.00;100420.91;5093791;27;97084;-30
2024/01/15 10:07:49;;;;;;;0.00;0.00;;;;;;;3.02;100.00;100439.34;5094379;27;96785;-31
2024/01/15 10:10:15;;;;;;;0.22;0.08;;;;;;;2.93;100.00;100437.84;5074991;27;101446;-32
2024/01/15 10:12:41;;;;;;;0.00;0.00;;;;;;;2.81;100.00;100427.63;5094133;27;98397;-27
2024/01/15 10:15:10;;;;;;;0.00;0.00;;;;;;;2.62;100.00;100472.84;5093427;27;97060;-27
2024/01/15 10:17:38;;;;;;;0.00;0.00;;;;;;;2.44;100.00;100472.56;5076849;27;97008;-27
2024/01/15 10:20:08;;;;;;;0.00;0.00;;;;;;;2.40;100.00;100456.69;5095976;27;97983;-28
2024/01/15 10:22:37;;;;;;;0.00;0.00;;;;;;;2.21;100.00;100432.38;5096157;27;99206;-27
2024/01/15 10:25:03;;;;;;;0.15;0.08;;;;;;;2.26;100.00;100443.78;5077600;27;96778;-27
2024/01/15 10:27:28;;;;;;;0.00;0.00;;;;;;;2.23;100.00;100433.22;5077637;27;97714;-29
2024/01/15 10:29:54;;;;;;;0.00;0.00;;;;;;;2.23;100.00;100435.88;5096158;27;97459;-27
2024/01/15 10:32:19;;;;;;;0.00;0.00;;;;;;;2.25;100.00;100442.94;5096168;27;104560;-27
2024/01/15 10:34:44;;;;;;;0.00;0.00;;;;;;;2.29;100.00;100444.56;5095722;27;96643;-27
2024/01/15 10:37:10;;;;;;;0.00;0.00;;;;;;;2.32;100.00;100452.47;5096077;27;96821;-27
2024/01/15 10:39:36;;;;;;;0.00;0.00;;;;;;;2.38;100.00;100448.72;5095317;27;97975;-27
2024/01/15 10:42:02;;;;;;;0.00;0.00;;;;;;;2.37;100.00;100443.44;5077241;27;101130;-27
2024/01/15 10:44:29;;;;;;;0.00;0.00;;;;;;;2.47;100.00;100440.38;5077363;27;96821;-27
2024/01/15 10:46:56;;;;;;;0.00;0.00;;;;;;;2.51;100.00;100436.69;5077258;27;96886;-27
2024/01/15 10:49:24;;;;;;;1.27;0.82;;;;;;;2.55;100.00;100430.31;5076478;27;101406;-27
2024/01/15 10:51:52;;;;;;;0.00;0.00;;;;;;;2.68;100.00;100432.53;5095154;27;99232;-27
2024/01/15 10:54:18;;;;;;;0.65;0.03;;;;;;;3.04;100.00;100427.63;5077081;27;96611;-28
2024/01/15 10:56:46;;;;;;;0.00;0.00;;;;;;;3.35;100.00;100435.38;5077378;27;96829;-27
2024/01/15 10:59:13;;;;;;;0.08;0.00;;;;;;;3.25;100.00;100434.00;5095496;27;97862;-27
2024/01/15 11:01:39;;;;;;;0.00;0.00;;;;;;;3.05;100.00;100431.19;5075509;27;101455;-27
2024/01/15 11:04:05;;;;;;;0.00;0.00;;;;;;;3.01;100.00;100441.16;5076064;27;96792;-27
2024/01/15 11:06:42;;;;;;;0.68;0.10;;;;;;;2.85;100.00;100435.47;5095459;27;96674;-28
2024/01/15 11:09:07;;;;;;;0.00;0.00;;;;;;;2.87;100.00;100448.81;5076811;27;101041;-27
2024/01/15 11:11:36;;;;;;;0.00;0.00;;;;;;;2.84;100.00;100436.41;5076795;27;100726;-27
2024/01/15 11:14:01;;;;;;;0.00;0.00;;;;;;;2.83;100.00;100442.66;5095251;27;96638;-27
2024/01/15 11:16:56;;;;;;;0.00;0.00;;;;;;;3.07;100.00;100446.25;5095079;27;97439;-27